Time;durP1;ratioP1;P1;durP2;ratioP2;P2;SDS_P1;SDS_P2;PMS_P1;PMS_P2;Temp;Humidity;BMP_temperature;BMP_pressure;BME280_temperature;BME280_humidity;BME280_pressure;Samples;Min_cycle;Max_cycle;Signal;HPM_P1;HPM_P2
2022/04/26 03:36:58;;;;;;;4.07;3.17;;;7.20;99.90;;;8.12;100.00;97721.31;5093928;28;21024;-75
2022/04/26 03:39:27;;;;;;;3.10;2.80;;;7.20;99.90;;;8.11;100.00;97725.72;5095136;28;20859;-75
2022/04/26 03:41:58;;;;;;;3.53;2.77;;;7.20;99.90;;;8.12;100.00;97724.75;5096258;28;20427;-75
2022/04/26 03:44:28;;;;;;;7.83;4.37;;;7.20;99.90;;;8.16;100.00;97720.00;5088554;28;20481;-82
2022/04/26 03:46:58;;;;;;;4.87;3.70;;;7.30;99.90;;;8.18;100.00;97721.41;5089850;28;20463;-76
2022/04/26 03:49:29;;;;;;;4.13;3.00;;;7.30;99.90;;;8.23;100.00;97723.47;5090050;28;20554;-75
2022/04/26 03:52:00;;;;;;;3.97;3.30;;;7.40;99.90;;;8.22;100.00;97717.47;5084288;28;20583;-75
2022/04/26 03:54:29;;;;;;;6.77;4.10;;;7.40;99.90;;;8.24;100.00;97720.69;5091451;28;20494;-82
2022/04/26 03:56:59;;;;;;;2.83;2.63;;;7.50;99.90;;;8.26;100.00;97723.13;5090754;28;20609;-75
2022/04/26 03:59:30;;;;;;;3.33;2.90;;;7.40;99.90;;;8.23;100.00;97731.28;5090134;28;20479;-75
2022/04/26 04:02:00;;;;;;;4.80;3.20;;;7.30;99.90;;;8.12;100.00;97729.97;5093763;28;20483;-75
2022/04/26 04:04:30;;;;;;;3.53;2.87;;;7.20;99.90;;;8.02;100.00;97738.00;5096166;28;20526;-75
2022/04/26 04:07:01;;;;;;;4.90;2.93;;;7.20;99.90;;;8.04;100.00;97735.25;5093053;28;20512;-75
2022/04/26 04:09:31;;;;;;;4.90;3.00;;;7.20;99.90;;;8.02;100.00;97732.81;5095032;28;20438;-75
2022/04/26 04:12:02;;;;;;;4.00;3.30;;;7.30;99.90;;;8.01;100.00;97733.81;5097799;28;20864;-76
2022/04/26 04:14:32;;;;;;;7.53;4.07;;;7.30;99.90;;;8.02;100.00;97731.97;5094234;28;20490;-74
2022/04/26 04:17:01;;;;;;;4.03;3.50;;;7.30;99.90;;;8.02;100.00;97737.19;5093659;28;20916;-75
2022/04/26 04:19:30;;;;;;;4.73;4.17;;;7.30;99.90;;;8.01;100.00;97735.59;5091368;28;20497;-75
2022/04/26 04:22:04;;;;;;;4.90;3.53;;;7.30;99.90;;;8.02;100.00;97742.41;5087742;28;20447;-75
2022/04/26 04:24:34;;;;;;;3.97;3.50;;;7.20;99.90;;;8.01;100.00;97735.59;5089453;28;20936;-75
2022/04/26 04:27:04;;;;;;;4.97;3.67;;;7.30;99.90;;;8.00;100.00;97739.19;5089773;28;20439;-75
2022/04/26 04:29:34;;;;;;;6.10;4.17;;;7.10;99.90;;;8.01;100.00;97740.81;5092615;28;20531;-75
2022/04/26 04:32:08;;;;;;;5.20;4.13;;;7.10;99.90;;;8.02;100.00;97755.41;5091460;28;20500;-75
2022/04/26 04:34:37;;;;;;;11.03;4.90;;;7.10;99.90;;;8.05;100.00;97753.28;5090892;28;20432;-75
2022/04/26 04:37:10;;;;;;;5.63;4.10;;;7.20;99.90;;;8.08;100.00;97759.94;5092264;28;20508;-75
2022/04/26 04:39:39;;;;;;;4.53;3.53;;;7.20;99.90;;;8.09;100.00;97761.53;5091675;28;20502;-75
2022/04/26 04:42:08;;;;;;;4.57;3.73;;;7.10;99.90;;;8.11;100.00;97767.38;5094232;28;20451;-75
2022/04/26 04:44:38;;;;;;;4.87;3.00;;;7.20;99.90;;;8.10;100.00;97765.75;5092484;28;20448;-75
2022/04/26 04:47:08;;;;;;;5.10;3.70;;;7.10;99.90;;;8.09;100.00;97769.34;5092207;28;20435;-75
2022/04/26 04:49:37;;;;;;;6.77;3.20;;;7.20;99.90;;;8.09;100.00;97777.16;5092328;28;20577;-75
2022/04/26 04:52:09;;;;;;;4.23;3.67;;;7.10;99.90;;;8.10;100.00;97776.19;5095313;28;20811;-75
2022/04/26 04:54:39;;;;;;;4.90;3.70;;;7.20;99.90;;;8.12;100.00;97778.63;5092625;28;20447;-75
2022/04/26 04:57:09;;;;;;;16.63;3.73;;;7.20;99.90;;;8.13;100.00;97785.41;5092738;28;21416;-75
2022/04/26 04:59:38;;;;;;;4.60;3.60;;;7.20;99.90;;;8.14;100.00;97787.88;5090396;28;20909;-75
2022/04/26 05:02:07;;;;;;;6.57;4.47;;;7.30;99.90;;;8.16;100.00;97785.88;5095528;28;20483;-75
2022/04/26 05:04:39;;;;;;;4.30;3.90;;;7.30;99.90;;;8.17;100.00;97792.72;5094435;28;20446;-75
2022/04/26 05:07:11;;;;;;;5.23;4.00;;;7.30;99.90;;;8.19;100.00;97792.53;5092405;28;20463;-75
2022/04/26 05:09:43;;;;;;;6.90;4.83;;;7.30;99.90;;;8.21;100.00;97793.97;5094656;28;20439;-75
2022/04/26 05:12:13;;;;;;;7.03;4.50;;;7.30;99.90;;;8.22;100.00;97800.00;5093441;28;20462;-75
2022/04/26 05:14:43;;;;;;;4.73;4.23;;;7.40;99.90;;;8.25;100.00;97800.44;5095040;28;20466;-75
2022/04/26 05:17:14;;;;;;;4.93;3.77;;;7.40;99.90;;;8.23;100.00;97802.41;5095546;28;20537;-75
2022/04/26 05:19:43;;;;;;;7.90;4.30;;;7.40;99.90;;;8.24;100.00;97798.81;5092117;28;20448;-75
2022/04/26 05:22:16;;;;;;;6.10;4.20;;;7.50;99.90;;;8.26;100.00;97803.88;5089833;28;20451;-75
2022/04/26 05:24:56;;;;;;;4.30;3.70;;;7.50;99.90;;;8.24;100.00;97804.03;5090529;28;20443;-75
2022/04/26 05:27:29;;;;;;;5.17;4.07;;;7.40;99.90;;;8.20;100.00;97802.78;5089990;28;20923;-75
2022/04/26 05:29:59;;;;;;;3.50;3.20;;;7.50;99.90;;;8.21;100.00;97796.59;5090371;28;20540;-76
2022/04/26 05:32:30;;;;;;;5.27;3.87;;;7.40;99.90;;;8.25;100.00;97804.84;5095219;28;20494;-75
2022/04/26 05:35:02;;;;;;;4.97;4.07;;;7.40;99.90;;;8.27;100.00;97814.09;5096265;28;20865;-75
2022/04/26 05:37:33;;;;;;;6.03;4.33;;;7.50;99.90;;;8.28;100.00;97810.53;5093640;28;20474;-75
2022/04/26 05:40:05;;;;;;;3.77;3.40;;;7.50;99.90;;;8.27;100.00;97810.69;5093762;28;20560;-75
2022/04/26 05:42:39;;;;;;;5.50;4.10;;;7.40;99.90;;;8.30;100.00;97813.75;5094541;28;20553;-75
2022/04/26 05:45:10;;;;;;;4.40;4.00;;;7.50;99.90;;;8.32;100.00;97811.81;5093384;28;20464;-75
2022/04/26 05:47:43;;;;;;;4.40;3.80;;;7.40;99.90;;;8.33;100.00;97813.41;5097103;28;20435;-75
2022/04/26 05:50:13;;;;;;;8.13;4.60;;;7.60;99.90;;;8.31;100.00;97809.38;5092870;28;20447;-75
2022/04/26 05:52:44;;;;;;;4.00;3.50;;;7.60;99.90;;;8.34;100.00;97815.03;5094928;28;20448;-75
2022/04/26 05:55:18;;;;;;;7.00;4.90;;;7.60;99.90;;;8.36;100.00;97817.47;5095953;28;20941;-75
2022/04/26 05:57:48;;;;;;;6.80;4.13;;;7.60;99.90;;;8.35;100.00;97814.06;5095131;28;20489;-75
2022/04/26 06:00:20;;;;;;;7.47;4.43;;;7.60;99.90;;;8.38;100.00;97821.50;5092809;28;20500;-75
2022/04/26 06:02:50;;;;;;;9.40;4.50;;;7.60;99.90;;;8.39;100.00;97824.94;5100727;28;20790;-75
2022/04/26 06:05:22;;;;;;;5.63;4.37;;;7.60;99.90;;;8.37;100.00;97821.69;5097116;28;20444;-75
2022/04/26 06:07:54;;;;;;;4.03;3.63;;;7.60;99.90;;;8.36;100.00;97823.50;5097666;28;20454;-74
2022/04/26 06:10:25;;;;;;;4.77;4.20;;;7.60;99.90;;;8.37;100.00;97822.50;5096296;28;20431;-75
2022/04/26 06:12:55;;;;;;;5.30;3.70;;;7.60;99.90;;;8.36;100.00;97822.69;5096584;28;20497;-74
2022/04/26 06:15:26;;;;;;;5.30;3.90;;;7.60;99.90;;;8.36;100.00;97820.91;5096041;28;20529;-75
2022/04/26 06:17:56;;;;;;;6.57;4.50;;;7.50;99.90;;;8.35;100.00;97832.28;5096458;28;20495;-75
2022/04/26 06:20:27;;;;;;;6.77;4.23;;;7.40;99.90;;;8.38;100.00;97825.91;5097035;28;20448;-75
2022/04/26 06:22:58;;;;;;;5.70;4.27;;;7.60;99.90;;;8.36;100.00;97827.91;5094525;28;20576;-75
2022/04/26 06:25:28;;;;;;;6.13;5.20;;;7.70;99.90;;;8.37;100.00;97830.31;5095767;28;20552;-75
2022/04/26 06:27:58;;;;;;;7.33;4.10;;;7.70;99.90;;;8.40;100.00;97835.16;5096566;28;20475;-74
2022/04/26 06:30:30;;;;;;;13.23;4.43;;;7.70;99.90;;;8.42;100.00;97837.59;5094928;28;20447;-75
2022/04/26 06:33:01;;;;;;;5.23;4.10;;;7.70;99.90;;;8.44;100.00;97831.22;5096331;28;20804;-75
2022/04/26 06:35:32;;;;;;;4.73;4.10;;;7.70;99.90;;;8.50;100.00;97834.91;5099825;28;20485;-75
2022/04/26 06:38:04;;;;;;;5.87;4.17;;;7.70;99.90;;;8.52;100.00;97841.56;5098911;28;20486;-75
2022/04/26 06:40:35;;;;;;;6.63;5.30;;;7.70;99.90;;;8.57;100.00;97836.59;5097040;28;20539;-75
2022/04/26 06:43:06;;;;;;;6.60;4.53;;;7.70;99.90;;;8.63;100.00;97842.09;5096530;28;20484;-75
2022/04/26 06:45:37;;;;;;;7.40;5.30;;;7.80;99.90;;;8.66;100.00;97837.34;5097793;28;20531;-75
2022/04/26 06:48:09;;;;;;;5.80;4.40;;;7.90;99.90;;;8.72;100.00;97841.00;5099304;28;20440;-75
2022/04/26 06:50:39;;;;;;;6.60;4.87;;;7.90;99.90;;;8.75;100.00;97843.25;5100354;28;20467;-75
2022/04/26 06:53:12;;;;;;;5.33;4.33;;;8.00;99.90;;;8.80;100.00;97840.94;5097513;28;20426;-75
2022/04/26 06:55:42;;;;;;;7.93;4.30;;;8.10;99.90;;;8.85;100.00;97856.84;5098111;28;20445;-75
2022/04/26 06:58:12;;;;;;;7.00;3.90;;;8.20;99.90;;;8.88;100.00;97857.31;5098535;28;20497;-75
2022/04/26 07:00:45;;;;;;;4.87;3.80;;;8.20;99.90;;;8.89;100.00;97860.69;5098255;28;21032;-75
2022/04/26 07:03:15;;;;;;;3.57;3.17;;;8.30;99.90;;;8.80;100.00;97852.16;5098925;28;20443;-75
2022/04/26 07:05:45;;;;;;;6.17;3.50;;;8.10;99.90;;;8.84;100.00;97857.84;5098120;28;20820;-75
2022/04/26 07:08:17;;;;;;;4.40;3.40;;;8.10;99.90;;;8.91;100.00;97861.34;5097390;28;20451;-75
2022/04/26 07:10:48;;;;;;;3.83;3.33;;;8.20;99.90;;;8.93;100.00;97856.72;5100010;28;20910;-75
2022/04/26 07:13:20;;;;;;;5.07;3.20;;;8.30;99.90;;;8.92;100.00;97853.31;5097020;28;20450;-75
2022/04/26 07:15:51;;;;;;;3.17;2.40;;;8.20;99.90;;;8.89;100.00;97865.91;5099043;28;20435;-75
2022/04/26 07:18:21;;;;;;;6.07;2.30;;;8.30;99.90;;;8.90;100.00;97864.91;5092264;28;20477;-75
2022/04/26 07:20:52;;;;;;;5.97;2.40;;;8.20;99.90;;;8.86;100.00;97861.06;5095534;28;20454;-75
2022/04/26 07:23:24;;;;;;;3.53;2.37;;;8.20;99.90;;;8.88;100.00;97869.53;5095565;28;20521;-75
2022/04/26 07:25:55;;;;;;;4.07;2.00;;;8.20;99.90;;;8.83;100.00;97874.44;5096590;28;20439;-75
2022/04/26 07:28:25;;;;;;;3.30;2.10;;;8.10;99.90;;;8.77;100.00;97872.56;5099857;28;20450;-75
2022/04/26 07:30:57;;;;;;;3.20;1.80;;;8.20;99.90;;;8.76;100.00;97873.56;5096368;28;20987;-75
2022/04/26 07:36:14;;;;;;;2.40;1.93;;;8.20;99.90;;;8.73;100.00;97879.13;5098319;28;20435;-75
2022/04/26 07:38:48;;;;;;;2.67;1.50;;;8.20;99.90;;;8.72;100.00;97885.31;5095961;28;20498;-75
2022/04/26 07:41:19;;;;;;;2.53;1.70;;;8.20;99.90;;;8.55;100.00;97889.91;5096704;28;20479;-75
2022/04/26 07:43:49;;;;;;;2.37;1.40;;;8.10;99.90;;;8.54;100.00;97886.47;5097285;28;20460;-75
2022/04/26 07:46:20;;;;;;;4.10;2.23;;;8.10;99.90;;;8.58;100.00;97894.75;5096730;28;21480;-75
2022/04/26 07:48:51;;;;;;;3.93;1.50;;;8.10;99.90;;;8.53;100.00;97903.13;5098426;28;20487;-75
2022/04/26 07:51:21;;;;;;;1.80;1.70;;;8.10;99.90;;;8.46;100.00;97901.41;5095996;28;20446;-75
2022/04/26 07:53:53;;;;;;;6.33;1.60;;;8.00;99.90;;;8.46;100.00;97897.00;5097195;28;20436;-75
2022/04/26 07:56:23;;;;;;;2.53;1.70;;;8.10;99.90;;;8.50;100.00;97900.06;5095458;28;20493;-75
2022/04/26 07:58:53;;;;;;;3.13;1.70;;;8.00;99.90;;;8.51;100.00;97905.06;5096957;28;20486;-75
2022/04/26 08:01:22;;;;;;;2.30;1.40;;;7.90;99.90;;;8.53;100.00;97908.34;5098097;28;20554;-75
2022/04/26 08:03:53;;;;;;;8.03;1.90;;;7.90;99.90;;;8.50;100.00;97911.25;5097896;28;20565;-75
2022/04/26 08:06:23;;;;;;;1.80;1.70;;;8.00;99.90;;;8.49;100.00;97912.28;5095638;28;20457;-75
2022/04/26 08:08:54;;;;;;;4.20;1.43;;;7.90;99.90;;;8.54;100.00;97917.75;5097513;28;20439;-75
2022/04/26 08:11:24;;;;;;;3.10;1.80;;;8.00;99.90;;;8.58;100.00;97913.00;5096477;28;20447;-75
2022/04/26 08:13:53;;;;;;;1.80;1.70;;;8.00;99.90;;;8.54;100.00;97919.53;5098520;28;20946;-75
2022/04/26 08:16:23;;;;;;;2.43;1.83;;;7.90;99.90;;;8.50;100.00;97918.31;5097680;28;20435;-75
2022/04/26 08:18:53;;;;;;;7.40;1.83;;;7.90;99.90;;;8.49;100.00;97922.69;5095968;28;20564;-75
2022/04/26 08:21:24;;;;;;;2.90;2.37;;;7.90;99.90;;;8.50;100.00;97926.91;5095983;28;20462;-75
2022/04/26 08:29:30;;;;;;;3.73;1.70;;;7.90;99.90;;;8.53;100.00;97934.38;5098362;28;20513;-75
2022/04/26 08:32:01;;;;;;;1.83;1.53;;;7.90;99.90;;;8.59;100.00;97949.31;5092358;28;20476;-75
2022/04/26 08:34:32;;;;;;;2.10;1.73;;;8.00;99.90;;;8.63;100.00;97948.97;5090958;28;20448;-75
2022/04/26 08:37:02;;;;;;;5.47;1.60;;;8.00;99.90;;;8.53;100.00;97944.81;5090449;28;20478;-75
2022/04/26 08:39:33;;;;;;;4.33;1.73;;;8.00;99.90;;;8.55;100.00;97945.44;5093406;28;20485;-75
2022/04/26 08:42:06;;;;;;;2.00;1.60;;;8.00;99.90;;;8.61;100.00;97953.56;5089890;28;20478;-75
2022/04/26 08:44:36;;;;;;;8.20;1.60;;;7.80;99.90;;;8.65;100.00;97958.22;5091490;28;20482;-75
2022/04/26 08:52:56;;;;;;;3.17;1.40;;;8.00;99.90;;;8.63;100.00;97967.19;5028250;28;20993;-75
2022/04/26 08:55:27;;;;;;;1.63;1.50;;;8.00;99.90;;;8.62;100.00;97970.78;5027815;28;20443;-75
2022/04/26 08:57:59;;;;;;;1.40;1.30;;;8.00;99.90;;;8.69;100.00;97974.31;5062912;28;20850;-75
2022/04/26 09:00:30;;;;;;;1.90;1.40;;;8.00;99.90;;;8.77;100.00;97972.44;5096228;28;20569;-75
2022/04/26 09:03:07;;;;;;;2.10;1.60;;;8.00;99.90;;;8.83;100.00;97978.75;5097945;28;20443;-75
2022/04/26 09:05:37;;;;;;;1.50;1.40;;;8.00;99.90;;;8.89;100.00;97981.44;5094261;28;20444;-75
2022/04/26 09:08:24;;;;;;;2.23;1.90;;;8.00;99.90;;;8.94;100.00;97978.31;5097116;28;20952;-75
2022/04/26 09:10:56;;;;;;;2.40;1.80;;;8.10;99.90;;;8.97;100.00;97973.56;5096743;28;20451;-75
2022/04/26 09:13:25;;;;;;;2.27;2.00;;;8.10;99.90;;;9.00;100.00;97967.97;5097714;28;20968;-75
2022/04/26 09:15:58;;;;;;;3.60;1.90;;;8.20;99.90;;;9.08;100.00;97980.13;5098392;28;20462;-75
2022/04/26 09:18:30;;;;;;;2.13;1.93;;;8.30;99.90;;;9.14;100.00;97982.00;5095747;28;20938;-75
2022/04/26 09:21:11;;;;;;;2.03;1.60;;;8.40;99.90;;;9.18;100.00;97991.09;5094242;28;20441;-75
2022/04/26 09:23:42;;;;;;;3.93;1.80;;;8.50;99.90;;;9.25;100.00;97989.41;5098099;28;20466;-75
2022/04/26 09:26:15;;;;;;;4.00;1.93;;;8.50;99.90;;;9.32;100.00;97985.09;5094749;28;20804;-75
2022/04/26 09:28:47;;;;;;;2.80;1.80;;;8.60;99.90;;;9.37;100.00;97989.75;5097199;28;20442;-75
2022/04/26 09:31:21;;;;;;;2.40;1.93;;;8.60;99.90;;;9.45;100.00;97989.66;5095247;28;20472;-75
2022/04/26 09:33:53;;;;;;;2.60;2.23;;;8.70;99.90;;;9.55;100.00;97993.59;5092508;28;20818;-75
2022/04/26 09:36:25;;;;;;;2.40;2.20;;;8.80;99.90;;;9.63;100.00;97995.31;5097278;28;20454;-75
2022/04/26 09:38:57;;;;;;;2.40;2.20;;;8.90;99.90;;;9.70;100.00;97998.81;5099811;28;20484;-75
2022/04/26 09:41:30;;;;;;;2.63;2.27;;;9.00;99.90;;;9.77;100.00;97991.88;5099192;28;20523;-75
2022/04/26 09:44:03;;;;;;;3.90;2.77;;;9.10;99.90;;;9.88;100.00;98001.03;5096920;28;20455;-75
2022/04/26 09:46:48;;;;;;;9.43;2.80;;;9.20;99.90;;;10.01;100.00;98003.78;5100874;28;20801;-75
2022/04/26 09:49:19;;;;;;;3.90;2.80;;;9.30;99.90;;;10.07;100.00;98001.25;5101843;27;20458;-75
2022/04/26 09:51:54;;;;;;;4.60;3.30;;;9.30;99.90;;;10.14;100.00;97998.72;5099086;28;20452;-75
2022/04/26 09:54:24;;;;;;;4.77;3.60;;;9.40;99.90;;;10.25;100.00;97995.63;5097910;28;20494;-75
2022/04/26 09:56:54;;;;;;;3.93;3.20;;;9.50;99.90;;;10.35;100.00;98005.78;5094607;28;20508;-75
2022/04/26 09:59:28;;;;;;;4.40;3.67;;;9.60;99.90;;;10.46;100.00;97997.44;5093464;28;20635;-75
2022/04/26 10:02:01;;;;;;;6.13;4.60;;;9.80;99.90;;;10.53;100.00;97993.91;5092084;27;20482;-75
2022/04/26 10:04:33;;;;;;;5.13;3.90;;;9.90;99.90;;;10.57;100.00;98004.78;5092140;28;21064;-75
2022/04/26 10:07:07;;;;;;;5.53;4.47;;;9.90;99.90;;;10.65;100.00;98001.25;5098506;28;20446;-75
2022/04/26 10:09:38;;;;;;;5.03;3.70;;;9.90;99.90;;;10.69;100.00;97994.66;5099498;28;20520;-75
2022/04/26 10:12:11;;;;;;;5.63;3.67;;;10.00;99.90;;;10.79;100.00;98003.78;5097540;28;21029;-75
2022/04/26 10:14:43;;;;;;;5.37;4.27;;;10.00;99.90;;;10.83;100.00;98001.59;5101228;28;20443;-75
2022/04/26 10:17:14;;;;;;;7.63;5.40;;;10.20;99.90;;;10.89;100.00;97998.22;5096824;28;20432;-75
2022/04/26 10:19:44;;;;;;;10.47;6.10;;;10.20;99.90;;;10.95;100.00;98006.09;5099597;28;20514;-75
2022/04/26 10:22:16;;;;;;;7.43;5.40;;;10.30;99.90;;;11.05;100.00;98009.19;5100320;28;20826;-75
2022/04/26 10:25:11;;;;;;;9.97;6.77;;;10.40;99.90;;;11.17;100.00;97996.41;5099147;28;20438;-75
2022/04/26 10:27:42;;;;;;;11.37;6.80;;;10.60;99.90;;;11.20;100.00;97998.63;5097066;28;20455;-75
2022/04/26 10:30:11;;;;;;;11.43;7.80;;;10.60;99.90;;;11.22;100.00;97999.25;5099082;28;20438;-75
2022/04/26 10:32:42;;;;;;;10.07;6.70;;;10.70;99.90;;;11.24;100.00;97996.44;5097028;28;20806;-75
2022/04/26 10:35:32;;;;;;;12.33;6.90;;;10.80;99.90;;;11.35;100.00;97994.06;5099430;28;20439;-75
2022/04/26 10:38:16;;;;;;;13.10;8.10;;;10.80;99.90;;;11.43;100.00;97991.31;5099530;28;20530;-75
2022/04/26 10:41:11;;;;;;;11.23;7.50;;;10.90;99.90;;;11.57;100.00;97997.41;5099468;28;20543;-75
2022/04/26 10:44:26;;;;;;;9.83;6.50;;;11.00;99.90;;;11.55;100.00;97988.97;5100357;28;20976;-75
2022/04/26 10:47:26;;;;;;;11.23;8.10;;;11.10;99.90;;;11.67;100.00;97994.44;5098629;28;20513;-75
2022/04/26 10:49:58;;;;;;;21.00;7.73;;;11.20;99.90;;;11.75;100.00;98000.38;5098828;28;20460;-75
2022/04/26 10:52:41;;;;;;;11.53;7.53;;;11.30;99.90;;;11.79;100.00;98000.78;5099793;28;20453;-75
2022/04/26 10:55:26;;;;;;;9.50;5.70;;;11.20;99.90;;;11.71;100.00;97998.31;5095538;28;20439;-75
2022/04/26 10:57:57;;;;;;;10.03;7.20;;;11.20;99.90;;;11.77;100.00;97997.53;5096485;28;20464;-75
2022/04/26 11:00:37;;;;;;;9.37;7.17;;;11.30;99.90;;;11.83;100.00;97996.78;5097885;28;20495;-75
2022/04/26 11:03:10;;;;;;;10.53;7.43;;;11.40;99.90;;;11.89;100.00;98001.22;5098072;28;20930;-75
2022/04/26 11:05:41;;;;;;;10.77;7.20;;;11.50;99.90;;;11.91;100.00;98004.44;5096802;28;20517;-75
2022/04/26 11:08:10;;;;;;;11.93;6.90;;;11.50;99.90;;;11.95;100.00;97996.00;5094506;28;20522;-75
2022/04/26 11:13:35;;;;;;;9.33;7.37;;;11.50;99.90;;;12.10;100.00;97998.47;5094007;28;20984;-75
2022/04/26 11:16:13;;;;;;;9.60;6.50;;;11.70;99.90;;;12.06;100.00;98005.09;5094284;28;20447;-75
2022/04/26 11:18:43;;;;;;;8.17;6.40;;;11.60;99.90;;;12.15;100.00;98016.22;5093047;28;20439;-75
2022/04/26 11:21:14;;;;;;;8.40;6.43;;;11.70;99.90;;;12.24;100.00;98007.16;5093608;28;20490;-75
2022/04/26 11:29:24;;;;;;;9.83;6.83;;;11.80;99.90;;;12.38;100.00;98012.25;5097264;28;20987;-75
2022/04/26 11:31:56;;;;;;;10.90;7.07;;;11.90;99.90;;;12.37;100.00;98009.81;5095623;28;20477;-75
2022/04/26 11:35:04;;;;;;;7.77;6.30;;;11.90;99.90;;;12.43;100.00;98009.81;5097069;28;20930;-75
2022/04/26 11:37:45;;;;;;;8.40;6.10;;;11.80;99.90;;;12.39;100.00;98008.59;5100236;28;20466;-75
2022/04/26 11:40:25;;;;;;;7.27;5.90;;;11.80;99.90;;;12.42;100.00;98017.91;5097389;28;20486;-75
2022/04/26 11:42:56;;;;;;;7.70;5.67;;;11.90;99.90;;;12.48;100.00;98017.91;5096652;28;20447;-75
2022/04/26 11:45:28;;;;;;;7.87;6.53;;;12.00;99.90;;;12.53;100.00;98020.72;5099722;28;20438;-75
2022/04/26 11:47:59;;;;;;;9.33;6.70;;;12.10;99.90;;;12.57;100.00;98027.19;5097985;28;20431;-75
2022/04/26 11:50:33;;;;;;;6.33;5.40;;;12.10;99.90;;;12.58;100.00;98020.94;5095230;28;20462;-75
2022/04/26 11:53:05;;;;;;;6.40;5.13;;;12.10;99.90;;;12.61;100.00;98020.53;5098297;28;20446;-74
2022/04/26 11:55:37;;;;;;;5.90;4.87;;;12.00;99.90;;;12.63;100.00;98026.38;5097069;28;20791;-75
2022/04/26 11:58:34;;;;;;;7.07;5.30;;;12.20;99.90;;;12.63;100.00;98021.13;5095357;28;20810;-75
2022/04/26 12:01:08;;;;;;;6.60;5.40;;;12.10;99.90;;;12.67;100.00;98026.78;5097274;28;20517;-75
2022/04/26 12:03:44;;;;;;;7.73;6.07;;;12.20;99.90;;;12.63;100.00;98027.41;5098926;28;20451;-75
2022/04/26 12:06:18;;;;;;;7.60;5.87;;;12.10;99.90;;;12.61;100.00;98033.66;5096017;28;20455;-75
2022/04/26 12:08:51;;;;;;;8.33;6.13;;;12.10;99.90;;;12.58;100.00;98028.81;5095676;28;20537;-75
2022/04/26 12:11:23;;;;;;;6.50;5.50;;;11.90;99.90;;;12.69;100.00;98031.84;5095944;28;20497;-75
2022/04/26 12:14:22;;;;;;;7.97;5.53;;;12.20;99.90;;;12.76;100.00;98035.28;5095693;28;20583;-75
2022/04/26 12:16:55;;;;;;;8.03;5.00;;;12.20;99.90;;;12.76;100.00;98030.03;5097413;28;20442;-75
2022/04/26 12:19:38;;;;;;;7.90;6.00;;;12.20;99.90;;;12.83;100.00;98036.09;5096115;28;20435;-75
2022/04/26 12:22:09;;;;;;;6.23;5.53;;;12.20;99.90;;;12.87;100.00;98042.56;5093791;28;20577;-75
2022/04/26 12:24:47;;;;;;;5.87;4.90;;;12.30;99.90;;;12.96;100.00;98036.91;5096176;28;20440;-75
2022/04/26 12:27:22;;;;;;;7.13;5.83;;;12.40;99.90;;;12.89;100.00;98035.28;5090502;28;20436;-75
2022/04/26 12:29:53;;;;;;;8.60;5.60;;;12.40;99.90;;;12.94;100.00;98032.88;5089811;28;20468;-75
2022/04/26 12:32:26;;;;;;;9.20;5.60;;;12.30;99.90;;;12.93;100.00;98031.25;5088288;28;20484;-75
2022/04/26 12:35:01;;;;;;;7.37;5.27;;;12.20;99.90;;;12.97;100.00;98029.84;5098172;28;20453;-75
2022/04/26 12:37:33;;;;;;;9.00;5.87;;;12.30;99.90;;;12.98;100.00;98029.63;5093939;28;20434;-75
2022/04/26 12:40:10;;;;;;;8.40;6.40;;;12.30;99.90;;;13.10;100.00;98029.88;5094658;28;20470;-75
2022/04/26 12:42:42;;;;;;;7.77;5.30;;;12.50;99.90;;;13.21;100.00;98028.44;5094970;28;20454;-75
2022/04/26 12:45:21;;;;;;;7.67;6.30;;;12.60;99.90;;;13.32;100.00;98031.28;5097898;28;21045;-75
2022/04/26 12:51:22;;;;;;;8.70;6.30;;;12.80;99.90;;;13.40;100.00;98028.41;5094488;28;20940;-75
2022/04/26 12:54:09;;;;;;;8.10;5.97;;;12.90;99.90;;;13.46;100.00;98024.97;5097381;28;20450;-75
2022/04/26 12:56:40;;;;;;;8.53;5.70;;;13.00;99.90;;;13.51;100.00;98026.97;5096649;28;20439;-75
2022/04/26 12:59:17;;;;;;;17.03;5.30;;;13.00;99.90;;;13.50;100.00;98028.78;5097313;28;20475;-75
2022/04/26 13:01:46;;;;;;;7.20;5.60;;;12.90;99.90;;;13.53;100.00;98028.41;5096095;28;20505;-75
2022/04/26 13:04:18;;;;;;;6.00;4.63;;;12.90;99.90;;;13.57;100.00;98029.59;5094526;28;20474;-75
2022/04/26 13:06:49;;;;;;;8.43;5.07;;;13.00;99.90;;;13.65;100.00;98027.75;5092621;28;20445;-75
2022/04/26 13:09:35;;;;;;;6.20;5.13;;;13.10;99.90;;;13.68;100.00;98033.41;5095336;28;21012;-75
2022/04/26 13:12:09;;;;;;;6.00;5.10;;;13.20;99.90;;;13.69;100.00;98036.84;5097086;28;20439;-75
2022/04/26 13:14:38;;;;;;;8.20;5.00;;;13.10;99.90;;;13.71;100.00;98045.34;5096780;28;20459;-75
2022/04/26 13:17:16;;;;;;;8.27;5.80;;;13.10;99.90;;;13.66;100.00;98045.13;5095954;28;20552;-75
2022/04/26 13:19:46;;;;;;;7.70;6.00;;;13.20;99.90;;;13.48;100.00;98046.59;5093471;28;20533;-75
2022/04/26 13:22:18;;;;;;;9.40;6.30;;;13.10;99.90;;;13.35;100.00;98072.06;5096115;28;20479;-75
2022/04/26 13:24:49;;;;;;;9.10;6.80;;;12.80;99.90;;;13.21;100.00;98081.78;5094710;28;20925;-75
2022/04/26 13:27:19;;;;;;;7.03;5.80;;;12.60;99.90;;;13.00;100.00;98081.94;5094112;28;20968;-75
2022/04/26 13:29:50;;;;;;;10.23;6.50;;;12.40;99.90;;;12.94;100.00;98098.50;5095632;28;20529;-75
2022/04/26 13:32:20;;;;;;;6.20;4.80;;;12.40;99.90;;;12.75;100.00;98094.84;5090147;28;20469;-75
2022/04/26 13:34:50;;;;;;;6.23;4.93;;;12.30;99.90;;;12.57;100.00;98100.66;5093751;28;20463;-75
2022/04/26 13:37:21;;;;;;;13.50;4.97;;;12.20;99.90;;;12.46;100.00;98098.59;5096146;28;20446;-75
2022/04/26 13:39:50;;;;;;;7.23;5.50;;;12.00;99.90;;;12.37;100.00;98101.59;5096665;28;20951;-75
2022/04/26 13:42:21;;;;;;;6.53;4.80;;;11.70;99.90;;;12.37;100.00;98114.72;5096246;28;20501;-75
2022/04/26 13:44:52;;;;;;;9.33;5.43;;;11.80;99.90;;;12.31;100.00;98147.78;5095099;28;20937;-75
2022/04/26 13:47:22;;;;;;;5.43;4.73;;;11.80;99.90;;;12.02;100.00;98143.59;5096526;28;20987;-75
2022/04/26 13:49:53;;;;;;;6.03;4.43;;;11.50;99.90;;;11.74;100.00;98155.91;5097894;28;20478;-75
2022/04/26 13:52:23;;;;;;;8.80;4.70;;;11.10;99.90;;;11.67;100.00;98155.03;5095034;28;20460;-75
2022/04/26 13:54:54;;;;;;;6.63;4.80;;;11.00;99.90;;;11.58;100.00;98156.19;5094720;28;20435;-75
2022/04/26 13:57:22;;;;;;;5.63;4.50;;;10.80;99.90;;;11.53;100.00;98159.38;5094754;28;20542;-75
2022/04/26 13:59:52;;;;;;;9.33;5.00;;;10.80;99.90;;;11.40;100.00;98163.69;5092905;28;20476;-75
2022/04/26 14:02:21;;;;;;;10.43;3.97;;;10.60;99.90;;;11.28;100.00;98155.53;5093360;28;20527;-75
2022/04/26 14:04:50;;;;;;;5.40;4.00;;;10.60;99.90;;;11.33;100.00;98166.25;5093858;28;20467;-75
2022/04/26 14:07:23;;;;;;;8.00;4.20;;;10.70;99.90;;;11.29;100.00;98167.63;5094132;28;20455;-75
2022/04/26 14:09:53;;;;;;;4.90;3.57;;;10.60;99.90;;;11.21;100.00;98159.91;5097478;28;20491;-75
2022/04/26 14:12:22;;;;;;;7.03;3.63;;;10.70;99.90;;;11.26;100.00;98160.16;5095713;28;20444;-74
2022/04/26 14:23:13;;;;;;;4.53;3.70;;;10.40;99.90;;;11.20;100.00;98158.28;5097901;28;20528;-75
2022/04/26 14:25:44;;;;;;;5.80;3.93;;;10.40;99.90;;;11.12;100.00;98158.41;5099602;28;20838;-75
2022/04/26 14:28:14;;;;;;;6.23;4.33;;;10.30;99.90;;;11.20;100.00;98166.16;5099788;28;20479;-75
2022/04/26 14:30:43;;;;;;;6.30;4.73;;;10.40;99.90;;;11.30;100.00;98158.78;5096679;28;20434;-75
2022/04/26 14:33:14;;;;;;;6.87;5.00;;;10.60;99.90;;;11.33;100.00;98168.88;5095791;28;20540;-75
2022/04/26 14:35:44;;;;;;;9.90;6.40;;;10.70;99.90;;;11.32;100.00;98164.63;5100259;28;20448;-75
2022/04/26 14:38:16;;;;;;;9.70;6.07;;;10.70;99.90;;;11.41;100.00;98163.50;5097956;28;20452;-75
2022/04/26 14:40:46;;;;;;;9.63;5.90;;;10.80;99.90;;;11.33;100.00;98173.28;5097448;28;20439;-75
2022/04/26 14:43:15;;;;;;;9.20;6.10;;;10.60;99.90;;;11.33;100.00;98181.16;5095524;28;20515;-75
2022/04/26 14:45:45;;;;;;;6.73;4.90;;;10.60;99.90;;;11.14;100.00;98185.22;5098089;28;20460;-75
2022/04/26 14:48:16;;;;;;;9.57;4.40;;;10.40;99.90;;;11.19;100.00;98187.25;5098478;28;20447;-75
2022/04/26 14:50:55;;;;;;;5.20;3.13;;;10.50;99.90;;;10.96;100.00;98193.50;5100535;28;20427;-75
2022/04/26 14:53:26;;;;;;;2.67;2.10;;;10.20;99.90;;;10.86;100.00;98195.63;5099230;28;20443;-74